^^
Your Local Weather - Clay, NY Station Historical Data
Daily Summary for July 17, 2017 Units:  English    Metric   Both
« Previous Day
Next Day »
Daily Weekly Monthly Yearly Custom
  High: Low: Average:
Temperature: 80.5 °F 63.3 °F 70.2 °F
Dew Point: 70.9 °F 60.9 °F 65.3 °F
Humidity: 94% 65% 85%
Wind Speed: 4.0mph 0.0mph 0.7mph
Wind Gust: 8.0mph - -
Wind- - SSE
Pressure: 30.00 in 29.90 in -
Precipitation: 0.15 in    
Historical Graphs
 
 
Tabular Data for July 17, 2017
Time Temperature Dew Point Pressure Wind Wind Speed Wind Gust Humidity Rainfall Rate (Hourly) solar
00:02 65.9 °F 63.2 °F 29.93 in Calm     91% 0.00 in 0 W/m2
00:08 65.9 °F 63.2 °F 29.93 in Calm     91% 0.00 in 0 W/m2
00:14 65.9 °F 63.2 °F 29.93 in Calm     91% 0.00 in 0 W/m2
00:20 65.8 °F 63.1 °F 29.93 in Calm     91% 0.00 in 0 W/m2
00:26 66.0 °F 63.3 °F 29.93 in Calm     91% 0.00 in 0 W/m2
00:32 65.9 °F 63.2 °F 29.92 in Calm     91% 0.00 in 0 W/m2
00:38 65.8 °F 63.1 °F 29.93 in Calm     91% 0.00 in 0 W/m2
00:44 65.8 °F 63.1 °F 29.93 in Calm     91% 0.00 in 0 W/m2
00:50 65.8 °F 63.1 °F 29.93 in Calm     91% 0.00 in 0 W/m2
00:56 65.8 °F 63.1 °F 29.93 in Calm     91% 0.00 in 0 W/m2
01:02 65.9 °F 63.2 °F 29.93 in Calm     91% 0.00 in 0 W/m2
01:08 66.0 °F 63.3 °F 29.92 in Calm     91% 0.00 in 0 W/m2
01:14 65.8 °F 63.1 °F 29.93 in Calm     91% 0.00 in 0 W/m2
01:20 65.8 °F 63.1 °F 29.92 in Calm     91% 0.00 in 0 W/m2
01:26 65.7 °F 63.0 °F 29.92 in Calm     91% 0.00 in 0 W/m2
01:32 65.6 °F 62.9 °F 29.93 in Calm     91% 0.00 in 0 W/m2
01:38 65.5 °F 62.5 °F 29.92 in Calm     90% 0.00 in 0 W/m2
01:44 65.4 °F 62.7 °F 29.93 in Calm     91% 0.00 in 0 W/m2
01:50 65.3 °F 62.6 °F 29.92 in Calm     91% 0.00 in 0 W/m2
01:56 65.2 °F 62.5 °F 29.92 in Calm     91% 0.00 in 0 W/m2
02:02 65.1 °F 62.4 °F 29.92 in Calm     91% 0.00 in 0 W/m2
02:08 65.1 °F 62.4 °F 29.92 in Calm     91% 0.00 in 0 W/m2
02:14 65.1 °F 62.4 °F 29.92 in Calm     91% 0.00 in 0 W/m2
02:20 65.1 °F 62.4 °F 29.92 in Calm     91% 0.00 in 0 W/m2
02:26 65.1 °F 62.4 °F 29.92 in Calm     91% 0.00 in 0 W/m2
02:32 65.1 °F 62.4 °F 29.92 in Calm     91% 0.00 in 0 W/m2
02:38 65.1 °F 62.4 °F 29.91 in Calm     91% 0.00 in 0 W/m2
02:44 65.0 °F 62.3 °F 29.91 in Calm     91% 0.00 in 0 W/m2
02:50 64.8 °F 62.1 °F 29.91 in Calm     91% 0.00 in 0 W/m2
02:56 64.7 °F 62.0 °F 29.91 in Calm     91% 0.00 in 0 W/m2
03:02 64.6 °F 61.9 °F 29.91 in Calm     91% 0.00 in 0 W/m2
03:08 64.5 °F 61.8 °F 29.91 in Calm     91% 0.00 in 0 W/m2
03:14 64.4 °F 61.7 °F 29.91 in Calm     91% 0.00 in 0 W/m2
03:20 64.4 °F 61.7 °F 29.91 in Calm     91% 0.00 in 0 W/m2
03:26 64.3 °F 61.6 °F 29.91 in Calm     91% 0.00 in 0 W/m2
03:32 64.2 °F 61.5 °F 29.91 in Calm     91% 0.00 in 0 W/m2
03:38 64.2 °F 61.5 °F 29.91 in Calm     91% 0.00 in 0 W/m2
03:44 64.0 °F 61.3 °F 29.90 in Calm     91% 0.00 in 0 W/m2
03:50 63.9 °F 61.5 °F 29.90 in Calm     92% 0.00 in 0 W/m2
03:56 63.7 °F 61.0 °F 29.90 in Calm     91% 0.00 in 0 W/m2
04:02 63.7 °F 61.3 °F 29.90 in Calm     92% 0.00 in 0 W/m2
04:08 63.7 °F 61.3 °F 29.90 in Calm     92% 0.00 in 0 W/m2
04:14 63.8 °F 61.4 °F 29.90 in Calm   2.0 mph 92% 0.00 in 0 W/m2
04:20 63.8 °F 61.1 °F 29.91 in Calm     91% 0.00 in 0 W/m2
04:26 63.8 °F 61.1 °F 29.91 in Calm     91% 0.00 in 0 W/m2
04:32 63.8 °F 61.1 °F 29.91 in Calm   1.0 mph 91% 0.00 in 0 W/m2
04:38 63.9 °F 61.2 °F 29.91 in Calm   1.0 mph 91% 0.00 in 0 W/m2
04:44 63.9 °F 61.2 °F 29.91 in Calm     91% 0.00 in 0 W/m2
04:50 64.0 °F 61.3 °F 29.91 in Calm     91% 0.00 in 0 W/m2
04:56 64.0 °F 61.3 °F 29.91 in Calm   1.0 mph 91% 0.00 in 0 W/m2
05:02 64.0 °F 61.3 °F 29.91 in East 1.0 mph 1.0 mph 91% 0.00 in 0 W/m2
05:08 64.1 °F 61.1 °F 29.92 in East 1.0 mph 2.0 mph 90% 0.00 in 0 W/m2
05:14 64.2 °F 61.2 °F 29.92 in East 1.0 mph 1.0 mph 90% 0.00 in 0 W/m2
05:20 64.3 °F 61.3 °F 29.93 in SW 1.0 mph 1.0 mph 90% 0.80 in 0 W/m2
05:26 64.3 °F 61.3 °F 29.93 in SW 1.0 mph 1.0 mph 90% 0.13 in 0 W/m2
05:32 64.2 °F 61.2 °F 29.94 in Calm     90% 0.10 in 0 W/m2
05:38 64.1 °F 61.4 °F 29.93 in Calm   1.0 mph 91% 0.14 in 0 W/m2
05:44 63.8 °F 61.1 °F 29.93 in SW 1.0 mph 3.0 mph 91% 0.06 in 0 W/m2
05:50 63.6 °F 61.2 °F 29.94 in NNE 1.0 mph 1.0 mph 92% 0.04 in 0 W/m2
05:56 63.5 °F 61.1 °F 29.94 in Calm   2.0 mph 92% 0.00 in 0 W/m2
06:02 63.4 °F 61.0 °F 29.94 in NNE 1.0 mph 1.0 mph 92% 0.00 in 7 W/m2
06:08 63.3 °F 60.9 °F 29.94 in Calm   1.0 mph 92% 0.00 in 9 W/m2
06:14 63.3 °F 60.9 °F 29.94 in Calm     92% 0.00 in 11 W/m2
06:20 63.3 °F 60.9 °F 29.93 in Calm     92% 0.00 in 12 W/m2
06:26 63.5 °F 61.4 °F 29.93 in Calm   1.0 mph 93% 0.00 in 14 W/m2
06:32 63.7 °F 61.6 °F 29.93 in NNE 1.0 mph 1.0 mph 93% 0.00 in 18 W/m2
06:38 63.9 °F 61.8 °F 29.94 in NNE 1.0 mph 1.0 mph 93% 0.00 in 26 W/m2
06:44 64.0 °F 61.9 °F 29.94 in Calm   1.0 mph 93% 0.00 in 47 W/m2
06:50 64.3 °F 62.2 °F 29.94 in Calm     93% 0.00 in 49 W/m2
06:56 64.6 °F 62.5 °F 29.94 in Calm     93% 0.00 in 47 W/m2
07:02 64.9 °F 63.1 °F 29.94 in Calm   1.0 mph 94% 0.00 in 46 W/m2
07:08 64.8 °F 63.0 °F 29.94 in ENE 1.0 mph 2.0 mph 94% 0.00 in 53 W/m2
07:14 65.1 °F 63.3 °F 29.94 in ENE 1.0 mph 1.0 mph 94% 0.00 in 102 W/m2
07:22 65.9 °F 64.1 °F 29.94 in Calm   1.0 mph 94% 0.00 in 232 W/m2
07:28 66.3 °F 64.2 °F 29.94 in SE 1.0 mph 1.0 mph 93% 0.00 in 251 W/m2
07:34 66.4 °F 64.3 °F 29.94 in NE 1.0 mph 5.0 mph 93% 0.00 in 88 W/m2
07:40 66.8 °F 64.7 °F 29.94 in NE 1.0 mph 1.0 mph 93% 0.00 in 299 W/m2
07:46 67.6 °F 65.2 °F 29.94 in SE 1.0 mph 2.0 mph 92% 0.00 in 339 W/m2
07:52 67.4 °F 64.4 °F 29.94 in ESE 2.0 mph 5.0 mph 90% 0.00 in 223 W/m2
07:58 67.5 °F 64.5 °F 29.94 in SSE 2.0 mph 5.0 mph 90% 0.00 in 223 W/m2
08:04 67.8 °F 64.8 °F 29.94 in East 1.0 mph 2.0 mph 90% 0.00 in 135 W/m2
08:10 67.6 °F 64.2 °F 29.94 in East 2.0 mph 2.0 mph 89% 0.00 in 123 W/m2
08:16 67.5 °F 64.1 °F 29.94 in ESE 1.0 mph 2.0 mph 89% 0.00 in 125 W/m2
08:22 67.6 °F 64.6 °F 29.94 in SE 1.0 mph 1.0 mph 90% 0.00 in 171 W/m2
08:28 67.8 °F 64.8 °F 29.94 in East 1.0 mph 3.0 mph 90% 0.00 in 218 W/m2
08:34 67.9 °F 64.9 °F 29.94 in ENE 1.0 mph 2.0 mph 90% 0.00 in 113 W/m2
08:40 67.9 °F 64.5 °F 29.95 in ENE 1.0 mph 1.0 mph 89% 0.00 in 46 W/m2
08:46 67.9 °F 64.5 °F 29.95 in ENE 1.0 mph 1.0 mph 89% 0.13 in 33 W/m2
08:52 67.6 °F 64.6 °F 29.94 in NE 1.0 mph 1.0 mph 90% 0.06 in 16 W/m2
08:58 67.4 °F 64.4 °F 29.95 in NE 1.0 mph 1.0 mph 90% 0.05 in 47 W/m2
09:04 67.2 °F 64.5 °F 29.96 in NE 1.0 mph 1.0 mph 91% 0.05 in 84 W/m2
09:10 67.3 °F 64.6 °F 29.95 in Calm     91% 0.00 in 167 W/m2
09:16 67.4 °F 64.7 °F 29.95 in North 1.0 mph 4.0 mph 91% 0.00 in 232 W/m2
09:22 67.9 °F 65.2 °F 29.95 in North 2.0 mph 4.0 mph 91% 0.00 in 271 W/m2
09:28 68.4 °F 65.7 °F 29.95 in NE 2.0 mph 5.0 mph 91% 0.00 in 295 W/m2
09:34 68.8 °F 66.1 °F 29.95 in ENE 2.0 mph 4.0 mph 91% 0.00 in 218 W/m2
09:40 68.8 °F 65.7 °F 29.96 in North 2.0 mph 2.0 mph 90% 0.00 in 204 W/m2
09:46 68.9 °F 65.5 °F 29.96 in ENE 2.0 mph 4.0 mph 89% 0.00 in 232 W/m2
09:52 69.1 °F 65.7 °F 29.95 in NE 3.0 mph 8.0 mph 89% 0.00 in 251 W/m2
09:58 69.2 °F 65.5 °F 29.96 in NE 2.0 mph 8.0 mph 88% 0.00 in 120 W/m2
10:04 68.8 °F 65.1 °F 29.96 in NE 3.0 mph 4.0 mph 88% 0.00 in 60 W/m2
10:10 68.7 °F 65.3 °F 29.96 in NNW 2.0 mph 2.0 mph 89% 0.00 in 32 W/m2
10:16 68.4 °F 65.0 °F 29.96 in NNW 1.0 mph 2.0 mph 89% 0.00 in 40 W/m2
10:22 68.1 °F 65.1 °F 29.96 in NNW 1.0 mph 3.0 mph 90% 0.00 in 54 W/m2
10:28 67.8 °F 64.8 °F 29.96 in NE 1.0 mph 3.0 mph 90% 0.00 in 62 W/m2
10:34 67.7 °F 64.7 °F 29.96 in NE 1.0 mph 1.0 mph 90% 0.00 in 63 W/m2
10:40 67.7 °F 65.0 °F 29.96 in Calm     91% 0.00 in 91 W/m2
10:46 67.8 °F 65.1 °F 29.96 in Calm     91% 0.00 in 139 W/m2
10:52 67.8 °F 65.1 °F 29.96 in Calm   1.0 mph 91% 0.00 in 185 W/m2
10:58 68.1 °F 65.4 °F 29.96 in Calm   1.0 mph 91% 0.00 in 88 W/m2
11:04 68.1 °F 65.4 °F 29.96 in Calm   2.0 mph 91% 0.00 in 76 W/m2
11:10 68.1 °F 65.4 °F 29.96 in ENE 1.0 mph 1.0 mph 91% 0.09 in 79 W/m2
11:14 67.9 °F 65.2 °F 29.96 in ENE 1.0 mph 1.0 mph 91% 0.16 in 114 W/m2
11:20 68.1 °F 65.4 °F 29.96 in Calm   1.0 mph 91% 0.09 in 380 W/m2
11:26 69.1 °F 66.7 °F 29.95 in East 1.0 mph 5.0 mph 92% 0.05 in 652 W/m2
11:32 70.3 °F 67.9 °F 29.94 in NE 2.0 mph 3.0 mph 92% 0.00 in 867 W/m2
11:38 71.2 °F 68.1 °F 29.94 in NNW 2.0 mph 4.0 mph 90% 0.00 in 947 W/m2
11:44 72.3 °F 68.5 °F 29.94 in NNW 2.0 mph 4.0 mph 88% 0.00 in 1086 W/m2
11:50 72.0 °F 67.6 °F 29.94 in NE 2.0 mph 2.0 mph 86% 0.00 in 942 W/m2
11:56 72.9 °F 68.1 °F 29.94 in ENE 2.0 mph 2.0 mph 85% 0.00 in 919 W/m2
12:02 73.6 °F 68.5 °F 29.94 in East 2.0 mph 2.0 mph 84% 0.00 in 970 W/m2
12:08 73.7 °F 69.2 °F 29.94 in NNE 2.0 mph 3.0 mph 86% 0.00 in 960 W/m2
12:14 74.9 °F 69.4 °F 29.94 in NNW 2.0 mph 4.0 mph 83% 0.00 in 886 W/m2
12:20 74.8 °F 69.3 °F 29.94 in NNW 2.0 mph 2.0 mph 83% 0.00 in 904 W/m2
12:26 75.3 °F 70.1 °F 29.94 in NW 2.0 mph 4.0 mph 84% 0.00 in 877 W/m2
12:32 75.9 °F 70.4 °F 29.94 in North 2.0 mph 3.0 mph 83% 0.00 in 907 W/m2
12:38 75.5 °F 68.2 °F 29.93 in NE 2.0 mph 3.0 mph 78% 0.00 in 911 W/m2
12:44 76.2 °F 69.2 °F 29.93 in NNE 2.0 mph 3.0 mph 79% 0.00 in 918 W/m2
12:50 77.2 °F 70.2 °F 29.93 in NE 1.0 mph 1.0 mph 79% 0.00 in 984 W/m2
12:56 77.5 °F 69.7 °F 29.93 in North 1.0 mph 3.0 mph 77% 0.00 in 1032 W/m2
13:02 77.7 °F 69.9 °F 29.93 in North 1.0 mph 1.0 mph 77% 0.00 in 946 W/m2
13:08 78.2 °F 70.0 °F 29.94 in North 1.0 mph 1.0 mph 76% 0.00 in 339 W/m2
13:14 77.9 °F 69.3 °F 29.93 in North 1.0 mph 1.0 mph 75% 0.00 in 214 W/m2
13:20 77.3 °F 69.5 °F 29.94 in Calm     77% 0.00 in 134 W/m2
13:26 76.7 °F 68.9 °F 29.94 in Calm     77% 0.00 in 130 W/m2
13:32 76.2 °F 69.2 °F 29.92 in North 1.0 mph 3.0 mph 79% 0.00 in 223 W/m2
13:38 75.7 °F 69.1 °F 29.93 in North 2.0 mph 3.0 mph 80% 0.00 in 311 W/m2
13:44 75.4 °F 69.2 °F 29.92 in North 1.0 mph 1.0 mph 81% 0.00 in 271 W/m2
13:50 75.2 °F 70.0 °F 29.93 in NNW 1.0 mph 4.0 mph 84% 0.00 in 313 W/m2
13:56 74.8 °F 68.9 °F 29.93 in NNW 1.0 mph 4.0 mph 82% 0.00 in 264 W/m2
14:02 74.9 °F 69.0 °F 29.93 in Calm   1.0 mph 82% 0.00 in 281 W/m2
14:08 75.1 °F 69.6 °F 29.93 in Calm   3.0 mph 83% 0.00 in 485 W/m2
14:14 75.5 °F 69.6 °F 29.93 in Calm   2.0 mph 82% 0.00 in 633 W/m2
14:20 76.0 °F 70.5 °F 29.93 in WSW 1.0 mph 1.0 mph 83% 0.00 in 323 W/m2
14:26 77.1 °F 69.7 °F 29.92 in WSW 1.0 mph 1.0 mph 78% 0.00 in 478 W/m2
14:32 77.3 °F 69.9 °F 29.92 in WSW 1.0 mph 2.0 mph 78% 0.00 in 401 W/m2
14:38 78.0 °F 69.4 °F 29.92 in SSW 1.0 mph 7.0 mph 75% 0.00 in 916 W/m2
14:44 78.4 °F 70.2 °F 29.92 in WSW 2.0 mph 3.0 mph 76% 0.00 in 870 W/m2
14:50 78.7 °F 69.7 °F 29.92 in West 2.0 mph 2.0 mph 74% 0.00 in 810 W/m2
14:56 79.1 °F 70.9 °F 29.92 in West 1.0 mph 2.0 mph 76% 0.00 in 865 W/m2
15:02 79.4 °F 70.0 °F 29.92 in SW 1.0 mph 1.0 mph 73% 0.00 in 840 W/m2
15:08 79.6 °F 69.0 °F 29.92 in WSW 1.0 mph 3.0 mph 70% 0.00 in 816 W/m2
15:14 79.5 °F 69.3 °F 29.91 in WSW 1.0 mph 2.0 mph 71% 0.00 in 802 W/m2
15:20 80.2 °F 70.8 °F 29.92 in WSW 1.0 mph 2.0 mph 73% 0.00 in 821 W/m2
15:26 80.2 °F 69.9 °F 29.92 in South 2.0 mph 6.0 mph 71% 0.00 in 798 W/m2
15:32 80.1 °F 68.6 °F 29.91 in WNW 1.0 mph 8.0 mph 68% 0.00 in 810 W/m2
15:38 79.6 °F 69.0 °F 29.91 in SW 2.0 mph 8.0 mph 70% 0.00 in 800 W/m2
15:44 79.8 °F 69.1 °F 29.92 in SW 1.0 mph 3.0 mph 70% 0.00 in 789 W/m2
15:50 80.5 °F 69.0 °F 29.92 in NW 1.0 mph 1.0 mph 68% 0.00 in 661 W/m2
15:56 79.6 °F 67.2 °F 29.92 in SW 1.0 mph 3.0 mph 66% 0.00 in 156 W/m2
16:02 78.9 °F 67.4 °F 29.93 in SW 2.0 mph 2.0 mph 68% 0.00 in 185 W/m2
16:08 78.7 °F 68.5 °F 29.92 in WSW 1.0 mph 2.0 mph 71% 0.00 in 202 W/m2
16:14 77.7 °F 66.3 °F 29.93 in WNW 2.0 mph 4.0 mph 68% 0.00 in 250 W/m2
16:20 75.6 °F 65.5 °F 29.93 in NW 3.0 mph 3.0 mph 71% 0.00 in 237 W/m2
16:26 74.2 °F 64.6 °F 29.92 in NNE 3.0 mph 6.0 mph 72% 0.00 in 301 W/m2
16:32 72.6 °F 63.8 °F 29.92 in NNW 4.0 mph 4.0 mph 74% 0.00 in 582 W/m2
16:38 72.4 °F 64.4 °F 29.92 in NNE 3.0 mph 4.0 mph 76% 0.00 in 445 W/m2
16:44 72.5 °F 66.0 °F 29.92 in NNE 3.0 mph 6.0 mph 80% 0.00 in 687 W/m2
16:50 73.4 °F 64.2 °F 29.92 in NNE 2.0 mph 2.0 mph 73% 0.00 in 522 W/m2
16:56 75.0 °F 65.4 °F 29.93 in NNW 1.0 mph 2.0 mph 72% 0.00 in 443 W/m2
17:02 75.2 °F 64.3 °F 29.93 in West 1.0 mph 2.0 mph 69% 0.00 in 232 W/m2
17:08 75.6 °F 63.0 °F 29.92 in SSW 1.0 mph 2.0 mph 65% 0.00 in 141 W/m2
17:14 76.2 °F 64.0 °F 29.92 in West 1.0 mph 3.0 mph 66% 0.00 in 121 W/m2
17:20 76.5 °F 64.7 °F 29.93 in SSW 1.0 mph 3.0 mph 67% 0.00 in 120 W/m2
17:26 76.7 °F 64.0 °F 29.93 in SW 1.0 mph 4.0 mph 65% 0.00 in 123 W/m2
17:32 76.7 °F 65.8 °F 29.93 in WSW 1.0 mph 1.0 mph 69% 0.00 in 151 W/m2
17:38 76.6 °F 65.7 °F 29.93 in WSW 1.0 mph 4.0 mph 69% 0.00 in 127 W/m2
17:44 76.4 °F 65.9 °F 29.93 in West 2.0 mph 3.0 mph 70% 0.00 in 132 W/m2
17:50 76.3 °F 66.2 °F 29.93 in WNW 2.0 mph 2.0 mph 71% 0.00 in 185 W/m2
17:56 76.5 °F 66.4 °F 29.93 in WNW 1.0 mph 2.0 mph 71% 0.00 in 204 W/m2
18:02 76.4 °F 66.7 °F 29.93 in WNW 1.0 mph 3.0 mph 72% 0.00 in 172 W/m2
18:08 76.3 °F 66.6 °F 29.94 in WNW 2.0 mph 3.0 mph 72% 0.00 in 211 W/m2
18:14 76.5 °F 66.8 °F 29.94 in North 1.0 mph 3.0 mph 72% 0.00 in 220 W/m2
18:20 76.6 °F 66.5 °F 29.94 in North 1.0 mph 1.0 mph 71% 0.00 in 155 W/m2
18:26 76.4 °F 66.7 °F 29.95 in Calm   1.0 mph 72% 0.00 in 144 W/m2
18:32 76.3 °F 66.6 °F 29.95 in North 1.0 mph 1.0 mph 72% 0.00 in 118 W/m2
18:38 76.5 °F 67.2 °F 29.96 in North 1.0 mph 1.0 mph 73% 0.00 in 123 W/m2
18:44 76.6 °F 67.3 °F 29.96 in Calm     73% 0.00 in 160 W/m2
18:50 76.6 °F 66.9 °F 29.96 in Calm   1.0 mph 72% 0.00 in 153 W/m2
18:56 76.6 °F 66.9 °F 29.96 in Calm   1.0 mph 72% 0.00 in 105 W/m2
19:02 76.7 °F 67.0 °F 29.96 in Calm     72% 0.00 in 97 W/m2
19:08 76.7 °F 67.0 °F 29.96 in Calm   1.0 mph 72% 0.00 in 72 W/m2
19:14 76.7 °F 67.0 °F 29.96 in Calm     72% 0.00 in 56 W/m2
19:20 76.7 °F 67.0 °F 29.96 in Calm     72% 0.00 in 51 W/m2
19:26 76.7 °F 67.0 °F 29.96 in Calm     72% 0.00 in 42 W/m2
19:32 76.7 °F 67.4 °F 29.96 in Calm     73% 0.00 in 35 W/m2
19:38 76.6 °F 67.7 °F 29.96 in Calm     74% 0.00 in 28 W/m2
19:44 76.0 °F 67.5 °F 29.96 in SE 1.0 mph 3.0 mph 75% 0.00 in 32 W/m2
19:50 75.6 °F 67.9 °F 29.96 in Calm     77% 0.00 in 28 W/m2
19:56 75.3 °F 67.6 °F 29.96 in Calm     77% 0.00 in 26 W/m2
20:02 74.7 °F 67.8 °F 29.95 in Calm     79% 0.00 in 23 W/m2
20:08 74.2 °F 67.3 °F 29.95 in Calm     79% 0.00 in 18 W/m2
20:14 74.0 °F 67.4 °F 29.96 in Calm     80% 0.00 in 18 W/m2
20:20 73.5 °F 67.3 °F 29.96 in Calm     81% 0.00 in 14 W/m2
20:26 72.9 °F 67.4 °F 29.96 in Calm     83% 0.00 in 12 W/m2
20:32 72.5 °F 67.4 °F 29.96 in Calm     84% 0.00 in 9 W/m2
20:38 72.4 °F 67.3 °F 29.96 in Calm     84% 0.00 in 9 W/m2
20:44 72.3 °F 67.2 °F 29.96 in Calm     84% 0.00 in 0 W/m2
20:50 72.2 °F 67.1 °F 29.96 in Calm     84% 0.00 in 0 W/m2
20:56 72.3 °F 67.2 °F 29.97 in Calm     84% 0.00 in 0 W/m2
21:02 72.3 °F 67.5 °F 29.97 in Calm     85% 0.00 in 0 W/m2
21:08 72.1 °F 67.3 °F 29.97 in Calm     85% 0.00 in 0 W/m2
21:14 71.8 °F 67.4 °F 29.97 in Calm     86% 0.00 in 0 W/m2
21:20 71.6 °F 67.2 °F 29.97 in Calm     86% 0.00 in 0 W/m2
21:26 71.2 °F 67.1 °F 29.98 in Calm     87% 0.00 in 0 W/m2
21:32 70.8 °F 66.7 °F 29.98 in Calm     87% 0.00 in 0 W/m2
21:38 70.5 °F 66.4 °F 29.98 in Calm     87% 0.00 in 0 W/m2
21:44 70.2 °F 66.1 °F 29.98 in Calm     87% 0.00 in 0 W/m2
21:50 69.9 °F 66.2 °F 29.99 in Calm     88% 0.00 in 0 W/m2
21:56 69.6 °F 65.9 °F 29.99 in Calm     88% 0.00 in 0 W/m2
22:02 69.3 °F 65.9 °F 29.98 in Calm     89% 0.00 in 0 W/m2
22:08 69.1 °F 65.7 °F 29.99 in Calm     89% 0.00 in 0 W/m2
22:14 68.8 °F 65.7 °F 29.98 in Calm     90% 0.00 in 0 W/m2
22:20 68.7 °F 65.6 °F 29.98 in Calm     90% 0.00 in 0 W/m2
22:26 68.5 °F 65.4 °F 29.98 in Calm     90% 0.00 in 0 W/m2
22:32 68.4 °F 65.4 °F 29.99 in Calm     90% 0.00 in 0 W/m2
22:38 68.3 °F 65.6 °F 29.99 in Calm     91% 0.00 in 0 W/m2
22:44 68.2 °F 65.5 °F 29.99 in Calm     91% 0.00 in 0 W/m2
22:50 68.2 °F 65.5 °F 29.99 in Calm     91% 0.00 in 0 W/m2
22:56 68.1 °F 65.4 °F 29.99 in Calm     91% 0.00 in 0 W/m2
23:02 68.1 °F 65.4 °F 29.99 in Calm     91% 0.00 in 0 W/m2
23:08 67.8 °F 65.1 °F 29.99 in Calm     91% 0.00 in 0 W/m2
23:14 67.7 °F 65.0 °F 29.99 in Calm     91% 0.00 in 0 W/m2
23:20 67.5 °F 65.1 °F 29.99 in Calm     92% 0.00 in 0 W/m2
23:26 67.3 °F 64.9 °F 29.99 in Calm     92% 0.00 in 0 W/m2
23:32 67.2 °F 64.8 °F 29.99 in Calm     92% 0.00 in 0 W/m2
23:38 67.0 °F 64.6 °F 29.99 in Calm     92% 0.00 in 0 W/m2
23:44 66.9 °F 64.5 °F 29.99 in Calm     92% 0.00 in 0 W/m2
23:50 66.8 °F 64.4 °F 29.99 in Calm     92% 0.00 in 0 W/m2
23:56 66.6 °F 64.2 °F 30.00 in Calm     92% 0.00 in 0 W/m2
Country Meadow, Clay, NY, USA
Compliments of Weather Underground - 2 mb